sensor_id;sensor_type;location;lat;lon;timestamp;pressure;altitude;pressure_sealevel;temperature;humidity
57376;BME280;44805;45.048;5.062;2022-09-09T00:07:01;99485.31;;;17.29;81.23
57376;BME280;44805;45.048;5.062;2022-09-09T00:20:32;99638.84;;;18.05;82.96
57376;BME280;44805;45.048;5.062;2022-09-09T00:23:31;99621.53;;;17.81;84.34
57376;BME280;44805;45.048;5.062;2022-09-09T00:27:06;99490.50;;;17.02;83.52
57376;BME280;44805;45.048;5.062;2022-09-09T00:32:52;99472.03;;;16.87;86.15
57376;BME280;44805;45.048;5.062;2022-09-09T00:35:36;99462.38;;;16.86;85.23
57376;BME280;44805;45.048;5.062;2022-09-09T00:38:21;99455.66;;;16.90;84.78
57376;BME280;44805;45.048;5.062;2022-09-09T00:44:30;99625.25;;;17.86;85.66
57376;BME280;44805;45.048;5.062;2022-09-09T01:02:50;99622.59;;;17.51;87.01
57376;BME280;44805;45.048;5.062;2022-09-09T01:12:39;99459.41;;;16.40;86.15
57376;BME280;44805;45.048;5.062;2022-09-09T01:18:29;99436.63;;;16.31;86.20
57376;BME280;44805;45.048;5.062;2022-09-09T01:29:35;99447.22;;;16.02;87.62
57376;BME280;44805;45.048;5.062;2022-09-09T01:35:03;99413.94;;;15.78;88.65
57376;BME280;44805;45.048;5.062;2022-09-09T01:38:00;99458.88;;;16.01;87.93
57376;BME280;44805;45.048;5.062;2022-09-09T01:48:58;99435.94;;;15.72;86.69
57376;BME280;44805;45.048;5.062;2022-09-09T01:51:36;99445.38;;;15.60;86.75
57376;BME280;44805;45.048;5.062;2022-09-09T02:03:27;99463.09;;;15.23;88.04
57376;BME280;44805;45.048;5.062;2022-09-09T02:08:48;99546.28;;;15.81;89.07
57376;BME280;44805;45.048;5.062;2022-09-09T02:11:22;99490.69;;;15.44;89.19
57376;BME280;44805;45.048;5.062;2022-09-09T02:13:55;99482.47;;;15.38;88.98
57376;BME280;44805;45.048;5.062;2022-09-09T02:17:01;99501.03;;;15.53;88.61
57376;BME280;44805;45.048;5.062;2022-09-09T02:20:00;99464.91;;;15.37;88.24
57376;BME280;44805;45.048;5.062;2022-09-09T02:28:07;99477.69;;;15.49;88.89
57376;BME280;44805;45.048;5.062;2022-09-09T02:30:41;99463.63;;;15.33;88.17
57376;BME280;44805;45.048;5.062;2022-09-09T02:33:11;99497.81;;;15.58;89.04
57376;BME280;44805;45.048;5.062;2022-09-09T02:35:40;99652.84;;;16.51;89.13
57376;BME280;44805;45.048;5.062;2022-09-09T02:38:12;99516.75;;;15.70;88.89
57376;BME280;44805;45.048;5.062;2022-09-09T02:44:08;99529.84;;;15.71;89.41
57376;BME280;44805;45.048;5.062;2022-09-09T02:53:06;99497.97;;;15.71;88.47
57376;BME280;44805;45.048;5.062;2022-09-09T02:55:52;99652.22;;;16.70;88.94
57376;BME280;44805;45.048;5.062;2022-09-09T02:58:23;99490.53;;;15.67;89.07
57376;BME280;44805;45.048;5.062;2022-09-09T03:00:54;99500.72;;;15.63;89.28
57376;BME280;44805;45.048;5.062;2022-09-09T03:06:05;99674.97;;;16.73;89.79
57376;BME280;44805;45.048;5.062;2022-09-09T03:08:31;99520.28;;;15.62;88.39
57376;BME280;44805;45.048;5.062;2022-09-09T03:14:20;99496.22;;;15.27;nan
57376;BME280;44805;45.048;5.062;2022-09-09T03:17:04;99549.34;;;15.49;88.30
57376;BME280;44805;45.048;5.062;2022-09-09T03:22:29;99502.34;;;15.13;87.89
57376;BME280;44805;45.048;5.062;2022-09-09T03:25:21;99529.50;;;15.15;88.23
57376;BME280;44805;45.048;5.062;2022-09-09T03:28:13;99683.28;;;16.12;87.92
57376;BME280;44805;45.048;5.062;2022-09-09T03:38:15;99511.22;;;14.90;88.91
57376;BME280;44805;45.048;5.062;2022-09-09T03:40:52;99519.09;;;14.98;89.18
57376;BME280;44805;45.048;5.062;2022-09-09T03:43:24;99508.94;;;15.02;89.97
57376;BME280;44805;45.048;5.062;2022-09-09T03:45:55;99508.13;;;15.02;89.41
57376;BME280;44805;45.048;5.062;2022-09-09T03:48:25;99485.63;;;14.83;90.35
57376;BME280;44805;45.048;5.062;2022-09-09T03:50:57;99638.34;;;15.66;90.81
57376;BME280;44805;45.048;5.062;2022-09-09T03:53:38;99665.47;;;15.76;91.95
57376;BME280;44805;45.048;5.062;2022-09-09T03:56:10;99494.44;;;14.60;92.17
57376;BME280;44805;45.048;5.062;2022-09-09T03:58:56;99510.28;;;14.83;91.22
57376;BME280;44805;45.048;5.062;2022-09-09T04:01:40;99616.59;;;15.56;90.45
57376;BME280;44805;45.048;5.062;2022-09-09T04:07:38;99679.94;;;15.89;91.14
57376;BME280;44805;45.048;5.062;2022-09-09T04:14:24;99560.22;;;14.94;92.15
57376;BME280;44805;45.048;5.062;2022-09-09T04:17:41;99535.31;;;14.81;91.43
57376;BME280;44805;45.048;5.062;2022-09-09T04:29:20;99533.53;;;15.11;89.58
57376;BME280;44805;45.048;5.062;2022-09-09T04:31:50;99578.25;;;15.44;89.20
57376;BME280;44805;45.048;5.062;2022-09-09T04:34:23;99535.00;;;14.98;89.62
57376;BME280;44805;45.048;5.062;2022-09-09T04:36:51;99534.38;;;14.96;90.09
57376;BME280;44805;45.048;5.062;2022-09-09T04:39:19;99551.47;;;15.09;90.04
57376;BME280;44805;45.048;5.062;2022-09-09T04:41:58;99536.09;;;14.89;89.96
57376;BME280;44805;45.048;5.062;2022-09-09T04:44:48;99588.22;;;15.12;90.79
57376;BME280;44805;45.048;5.062;2022-09-09T04:47:43;99550.13;;;14.75;90.96
57376;BME280;44805;45.048;5.062;2022-09-09T04:50:34;99575.69;;;14.91;91.42
57376;BME280;44805;45.048;5.062;2022-09-09T05:01:30;99701.28;;;15.80;89.72
57376;BME280;44805;45.048;5.062;2022-09-09T05:04:01;99628.94;;;15.49;88.87
57376;BME280;44805;45.048;5.062;2022-09-09T05:06:31;99550.91;;;14.98;88.53
57376;BME280;44805;45.048;5.062;2022-09-09T05:08:57;99562.63;;;15.19;88.31
57376;BME280;44805;45.048;5.062;2022-09-09T05:15:09;99713.31;;;16.13;87.39
57376;BME280;44805;45.048;5.062;2022-09-09T05:18:04;99558.22;;;15.26;87.42
57376;BME280;44805;45.048;5.062;2022-09-09T05:20:33;99657.78;;;15.96;87.22
57376;BME280;44805;45.048;5.062;2022-09-09T05:23:21;99591.97;;;15.47;87.66
57376;BME280;44805;45.048;5.062;2022-09-09T05:26:22;99697.75;;;16.24;87.17
57376;BME280;44805;45.048;5.062;2022-09-09T05:28:52;99583.81;;;15.34;88.22
57376;BME280;44805;45.048;5.062;2022-09-09T05:31:19;99583.94;;;15.40;87.80
57376;BME280;44805;45.048;5.062;2022-09-09T05:33:46;99582.66;;;15.22;88.42
57376;BME280;44805;45.048;5.062;2022-09-09T05:36:14;99575.41;;;15.15;89.16
57376;BME280;44805;45.048;5.062;2022-09-09T05:38:43;99591.72;;;15.27;88.89
57376;BME280;44805;45.048;5.062;2022-09-09T05:44:45;99711.41;;;16.06;88.80
57376;BME280;44805;45.048;5.062;2022-09-09T05:51:09;99581.44;;;14.94;89.88
57376;BME280;44805;45.048;5.062;2022-09-09T06:34:08;99641.47;;;15.84;86.31
57376;BME280;44805;45.048;5.062;2022-09-09T06:39:57;99631.13;;;15.90;86.50
57376;BME280;44805;45.048;5.062;2022-09-09T06:49:11;99613.41;;;16.12;83.40
57376;BME280;44805;45.048;5.062;2022-09-09T06:51:50;99614.50;;;16.17;82.13
57376;BME280;44805;45.048;5.062;2022-09-09T06:54:28;99776.47;;;17.20;81.76
57376;BME280;44805;45.048;5.062;2022-09-09T06:57:08;99650.72;;;16.40;81.91
57376;BME280;44805;45.048;5.062;2022-09-09T06:59:34;99628.25;;;16.42;82.27
57376;BME280;44805;45.048;5.062;2022-09-09T07:02:02;99680.75;;;16.77;82.15
57376;BME280;44805;45.048;5.062;2022-09-09T07:04:44;99637.53;;;16.53;81.51
57376;BME280;44805;45.048;5.062;2022-09-09T07:07:40;99621.03;;;16.58;81.42
57376;BME280;44805;45.048;5.062;2022-09-09T07:33:37;99651.41;;;17.76;75.02
57376;BME280;44805;45.048;5.062;2022-09-09T07:39:05;99757.88;;;18.46;74.53
57376;BME280;44805;45.048;5.062;2022-09-09T07:41:43;99633.56;;;17.76;74.50
57376;BME280;44805;45.048;5.062;2022-09-09T07:44:22;99636.34;;;17.96;74.33
57376;BME280;44805;45.048;5.062;2022-09-09T07:46:52;99774.50;;;18.96;73.19
57376;BME280;44805;45.048;5.062;2022-09-09T07:54:24;99657.22;;;18.61;69.69
57376;BME280;44805;45.048;5.062;2022-09-09T07:57:10;99654.56;;;18.61;69.72
57376;BME280;44805;45.048;5.062;2022-09-09T07:59:35;99668.56;;;18.76;70.04
57376;BME280;44805;45.048;5.062;2022-09-09T08:02:02;99674.69;;;18.70;70.25
57376;BME280;44805;45.048;5.062;2022-09-09T08:04:33;99710.25;;;19.04;70.04
57376;BME280;44805;45.048;5.062;2022-09-09T08:07:01;99677.00;;;19.00;68.55
57376;BME280;44805;45.048;5.062;2022-09-09T08:09:28;99681.31;;;19.27;67.68
57376;BME280;44805;45.048;5.062;2022-09-09T08:11:57;99750.91;;;19.79;65.93
57376;BME280;44805;45.048;5.062;2022-09-09T08:14:25;99677.13;;;19.71;64.76
57376;BME280;44805;45.048;5.062;2022-09-09T08:16:53;99687.38;;;19.88;64.46
57376;BME280;44805;45.048;5.062;2022-09-09T08:19:19;99676.50;;;19.83;63.97
57376;BME280;44805;45.048;5.062;2022-09-09T08:21:51;99645.91;;;19.65;65.56
57376;BME280;44805;45.048;5.062;2022-09-09T08:24:18;99673.66;;;19.51;65.28
57376;BME280;44805;45.048;5.062;2022-09-09T08:30:28;99806.97;;;20.06;63.46
57376;BME280;44805;45.048;5.062;2022-09-09T08:32:55;99664.88;;;19.17;64.51
57376;BME280;44805;45.048;5.062;2022-09-09T08:35:20;99716.59;;;19.43;61.91
57376;BME280;44805;45.048;5.062;2022-09-09T08:37:50;99651.34;;;19.12;60.66
57376;BME280;44805;45.048;5.062;2022-09-09T08:40:23;99675.78;;;19.29;58.85
57376;BME280;44805;45.048;5.062;2022-09-09T08:46:35;99671.19;;;19.63;58.42
57376;BME280;44805;45.048;5.062;2022-09-09T08:52:00;99670.19;;;19.57;55.85
57376;BME280;44805;45.048;5.062;2022-09-09T08:54:33;99663.22;;;19.43;57.06
57376;BME280;44805;45.048;5.062;2022-09-09T08:59:38;99654.97;;;19.64;54.95
57376;BME280;44805;45.048;5.062;2022-09-09T09:05:57;99647.91;;;19.90;53.19
57376;BME280;44805;45.048;5.062;2022-09-09T09:19:43;99693.38;;;20.73;49.64
57376;BME280;44805;45.048;5.062;2022-09-09T09:22:28;99744.50;;;20.97;50.80
57376;BME280;44805;45.048;5.062;2022-09-09T09:25:27;99693.88;;;20.50;45.57
57376;BME280;44805;45.048;5.062;2022-09-09T09:31:08;99654.16;;;20.60;47.29
57376;BME280;44805;45.048;5.062;2022-09-09T10:56:08;99646.81;;;23.07;36.07
57376;BME280;44805;45.048;5.062;2022-09-09T10:59:07;99762.66;;;23.76;36.82
57376;BME280;44805;45.048;5.062;2022-09-09T11:01:48;99638.53;;;23.21;37.99
57376;BME280;44805;45.048;5.062;2022-09-09T11:04:31;99767.38;;;24.21;37.31
57376;BME280;44805;45.048;5.062;2022-09-09T11:34:36;99740.09;;;25.32;35.26
57376;BME280;44805;45.048;5.062;2022-09-09T11:40:19;99613.28;;;24.55;35.31
57376;BME280;44805;45.048;5.062;2022-09-09T11:42:46;99601.28;;;24.17;35.19
57376;BME280;44805;45.048;5.062;2022-09-09T11:45:24;99610.28;;;24.22;35.01
57376;BME280;44805;45.048;5.062;2022-09-09T11:48:22;99612.97;;;23.94;35.14
57376;BME280;44805;45.048;5.062;2022-09-09T11:51:12;99634.06;;;23.73;34.62
57376;BME280;44805;45.048;5.062;2022-09-09T11:54:00;99746.84;;;23.80;34.78
57376;BME280;44805;45.048;5.062;2022-09-09T11:59:34;99609.78;;;23.33;34.87
57376;BME280;44805;45.048;5.062;2022-09-09T12:02:22;99738.59;;;24.22;35.69
57376;BME280;44805;45.048;5.062;2022-09-09T12:05:11;99740.09;;;24.30;36.21
57376;BME280;44805;45.048;5.062;2022-09-09T12:10:27;99619.06;;;23.89;34.94
57376;BME280;44805;45.048;5.062;2022-09-09T12:23:57;99591.09;;;24.19;35.87
57376;BME280;44805;45.048;5.062;2022-09-09T12:26:32;99593.66;;;24.25;34.48
57376;BME280;44805;45.048;5.062;2022-09-09T12:37:54;99606.38;;;24.30;34.95
57376;BME280;44805;45.048;5.062;2022-09-09T12:53:37;99631.91;;;25.24;33.34
57376;BME280;44805;45.048;5.062;2022-09-09T12:56:09;99595.25;;;25.06;32.89
57376;BME280;44805;45.048;5.062;2022-09-09T12:59:24;99708.84;;;26.09;33.77
57376;BME280;44805;45.048;5.062;2022-09-09T13:01:57;99571.75;;;25.18;32.10
57376;BME280;44805;45.048;5.062;2022-09-09T13:04:23;99665.00;;;25.58;32.63
57376;BME280;44805;45.048;5.062;2022-09-09T13:06:49;99592.25;;;25.19;32.64
57376;BME280;44805;45.048;5.062;2022-09-09T13:09:18;99642.94;;;25.61;32.58
57376;BME280;44805;45.048;5.062;2022-09-09T13:11:52;99666.66;;;25.81;32.61
57376;BME280;44805;45.048;5.062;2022-09-09T13:19:53;99706.97;;;25.88;32.70
57376;BME280;44805;45.048;5.062;2022-09-09T13:25:38;99646.63;;;25.77;32.30
57376;BME280;44805;45.048;5.062;2022-09-09T13:35:24;99695.22;;;26.21;32.28
57376;BME280;44805;45.048;5.062;2022-09-09T14:09:14;99548.44;;;25.51;32.89
57376;BME280;44805;45.048;5.062;2022-09-09T14:11:40;99659.50;;;26.36;31.55
57376;BME280;44805;45.048;5.062;2022-09-09T14:17:43;99555.72;;;25.72;31.08
57376;BME280;44805;45.048;5.062;2022-09-09T14:20:09;99530.66;;;25.50;30.62
57376;BME280;44805;45.048;5.062;2022-09-09T14:22:37;99600.81;;;25.99;30.91
57376;BME280;44805;45.048;5.062;2022-09-09T14:25:04;99539.81;;;25.10;32.25
57376;BME280;44805;45.048;5.062;2022-09-09T14:27:32;99540.13;;;25.30;31.96
57376;BME280;44805;45.048;5.062;2022-09-09T14:33:21;99559.66;;;25.87;31.99
57376;BME280;44805;45.048;5.062;2022-09-09T14:35:47;99516.91;;;25.51;31.94
57376;BME280;44805;45.048;5.062;2022-09-09T14:38:16;99522.97;;;25.64;32.22
57376;BME280;44805;45.048;5.062;2022-09-09T14:40:44;99538.53;;;25.78;31.44
57376;BME280;44805;45.048;5.062;2022-09-09T14:43:11;99530.94;;;25.75;31.21
57376;BME280;44805;45.048;5.062;2022-09-09T14:45:36;99536.84;;;25.72;32.31
57376;BME280;44805;45.048;5.062;2022-09-09T14:48:03;99573.63;;;26.06;31.34
57376;BME280;44805;45.048;5.062;2022-09-09T14:50:29;99528.25;;;25.75;32.03
57376;BME280;44805;45.048;5.062;2022-09-09T14:52:54;99531.72;;;25.49;31.81
57376;BME280;44805;45.048;5.062;2022-09-09T14:55:20;99532.16;;;25.41;32.61
57376;BME280;44805;45.048;5.062;2022-09-09T14:58:00;99663.94;;;26.25;31.89
57376;BME280;44805;45.048;5.062;2022-09-09T15:04:03;99562.50;;;25.53;32.06
57376;BME280;44805;45.048;5.062;2022-09-09T15:06:36;99545.63;;;25.41;32.15
57376;BME280;44805;45.048;5.062;2022-09-09T15:09:02;99536.03;;;25.11;31.90
57376;BME280;44805;45.048;5.062;2022-09-09T15:11:33;99517.47;;;24.92;32.84
57376;BME280;44805;45.048;5.062;2022-09-09T15:14:40;99653.53;;;25.68;32.62
57376;BME280;44805;45.048;5.062;2022-09-09T15:17:31;99527.94;;;24.89;32.62
57376;BME280;44805;45.048;5.062;2022-09-09T15:20:07;99566.91;;;25.03;32.19
57376;BME280;44805;45.048;5.062;2022-09-09T15:22:35;99533.06;;;24.90;33.04
57376;BME280;44805;45.048;5.062;2022-09-09T15:25:03;99541.78;;;24.98;33.18
57376;BME280;44805;45.048;5.062;2022-09-09T15:27:28;99574.50;;;25.23;33.51
57376;BME280;44805;45.048;5.062;2022-09-09T15:30:24;99649.34;;;25.55;32.81
57376;BME280;44805;45.048;5.062;2022-09-09T15:32:49;99531.81;;;24.76;33.25
57376;BME280;44805;45.048;5.062;2022-09-09T15:35:17;99613.84;;;25.63;34.23
57376;BME280;44805;45.048;5.062;2022-09-09T15:37:44;99613.66;;;25.70;32.20
57376;BME280;44805;45.048;5.062;2022-09-09T15:40:37;99531.81;;;25.15;33.12
57376;BME280;44805;45.048;5.062;2022-09-09T15:43:11;99521.91;;;24.99;32.73
57376;BME280;44805;45.048;5.062;2022-09-09T15:45:40;99530.00;;;25.21;32.14
57376;BME280;44805;45.048;5.062;2022-09-09T15:48:07;99596.34;;;25.44;32.78
57376;BME280;44805;45.048;5.062;2022-09-09T15:50:36;99548.41;;;25.07;31.79
57376;BME280;44805;45.048;5.062;2022-09-09T15:53:02;99649.41;;;25.60;33.12
57376;BME280;44805;45.048;5.062;2022-09-09T15:55:36;99567.63;;;24.94;33.65
57376;BME280;44805;45.048;5.062;2022-09-09T15:58:06;99590.78;;;25.11;32.75
57376;BME280;44805;45.048;5.062;2022-09-09T16:00:35;99521.25;;;24.91;32.95
57376;BME280;44805;45.048;5.062;2022-09-09T16:03:03;99534.50;;;25.15;32.91
57376;BME280;44805;45.048;5.062;2022-09-09T16:05:33;99518.28;;;24.93;32.70
57376;BME280;44805;45.048;5.062;2022-09-09T16:08:01;99516.81;;;25.02;33.10
57376;BME280;44805;45.048;5.062;2022-09-09T16:10:29;99562.50;;;25.53;32.92
57376;BME280;44805;45.048;5.062;2022-09-09T16:13:00;99498.69;;;24.98;32.62
57376;BME280;44805;45.048;5.062;2022-09-09T16:15:56;99627.81;;;25.82;33.21
57376;BME280;44805;45.048;5.062;2022-09-09T16:18:23;99495.28;;;25.02;33.12
57376;BME280;44805;45.048;5.062;2022-09-09T16:20:57;99538.00;;;24.94;33.74
57376;BME280;44805;45.048;5.062;2022-09-09T16:23:23;99491.91;;;24.73;34.45
57376;BME280;44805;45.048;5.062;2022-09-09T16:26:00;99582.59;;;25.23;33.98
57376;BME280;44805;45.048;5.062;2022-09-09T16:31:53;99504.47;;;24.67;34.41
57376;BME280;44805;45.048;5.062;2022-09-09T16:53:10;99634.53;;;24.68;35.74
57376;BME280;44805;45.048;5.062;2022-09-09T16:56:06;99640.88;;;24.33;36.66
57376;BME280;44805;45.048;5.062;2022-09-09T16:59:01;99502.03;;;23.58;36.74
57376;BME280;44805;45.048;5.062;2022-09-09T17:01:41;99556.63;;;24.16;36.02
57376;BME280;44805;45.048;5.062;2022-09-09T17:04:19;99525.59;;;23.96;36.83
57376;BME280;44805;45.048;5.062;2022-09-09T17:06:56;99514.03;;;23.79;36.58
57376;BME280;44805;45.048;5.062;2022-09-09T17:17:04;99519.63;;;23.66;37.75
57376;BME280;44805;45.048;5.062;2022-09-09T17:19:38;99554.09;;;23.80;38.17
57376;BME280;44805;45.048;5.062;2022-09-09T17:22:19;99529.38;;;23.55;39.41
57376;BME280;44805;45.048;5.062;2022-09-09T17:25:06;99619.56;;;24.15;39.64
57376;BME280;44805;45.048;5.062;2022-09-09T17:27:49;99511.25;;;23.22;39.18
57376;BME280;44805;45.048;5.062;2022-09-09T17:30:36;99546.25;;;23.38;39.33
57376;BME280;44805;45.048;5.062;2022-09-09T17:33:04;99518.59;;;23.14;39.38
57376;BME280;44805;45.048;5.062;2022-09-09T17:35:36;99532.06;;;23.03;40.19
57376;BME280;44805;45.048;5.062;2022-09-09T17:38:15;99512.06;;;22.87;40.87
57376;BME280;44805;45.048;5.062;2022-09-09T17:41:01;99534.72;;;22.91;40.85
57376;BME280;44805;45.048;5.062;2022-09-09T17:43:30;99601.97;;;23.31;40.90
57376;BME280;44805;45.048;5.062;2022-09-09T17:46:20;99655.34;;;23.51;40.75
57376;BME280;44805;45.048;5.062;2022-09-09T17:52:06;99580.56;;;22.66;42.70
57376;BME280;44805;45.048;5.062;2022-09-09T17:54:56;99521.75;;;22.10;42.62
57376;BME280;44805;45.048;5.062;2022-09-09T17:57:52;99526.03;;;22.00;43.64
57376;BME280;44805;45.048;5.062;2022-09-09T18:04:14;99516.47;;;21.62;44.50
57376;BME280;44805;45.048;5.062;2022-09-09T18:06:46;99514.72;;;21.67;44.60
57376;BME280;44805;45.048;5.062;2022-09-09T18:09:19;99524.09;;;21.77;45.08
57376;BME280;44805;45.048;5.062;2022-09-09T18:12:10;99524.50;;;21.62;45.98
57376;BME280;44805;45.048;5.062;2022-09-09T18:18:25;99616.47;;;21.74;47.75
57376;BME280;44805;45.048;5.062;2022-09-09T18:21:15;99664.56;;;21.87;48.08
57376;BME280;44805;45.048;5.062;2022-09-09T18:24:06;99541.53;;;21.12;48.20
57376;BME280;44805;45.048;5.062;2022-09-09T18:26:39;99534.47;;;20.99;48.76
57376;BME280;44805;45.048;5.062;2022-09-09T18:35:51;99554.41;;;21.22;48.48
57376;BME280;44805;45.048;5.062;2022-09-09T18:38:20;99555.88;;;21.36;47.64
57376;BME280;44805;45.048;5.062;2022-09-09T18:40:49;99561.69;;;21.33;48.21
57376;BME280;44805;45.048;5.062;2022-09-09T18:43:28;99601.16;;;21.63;48.77
57376;BME280;44805;45.048;5.062;2022-09-09T18:49:21;99574.28;;;21.33;49.98
57376;BME280;44805;45.048;5.062;2022-09-09T18:51:49;99567.56;;;21.23;50.66
57376;BME280;44805;45.048;5.062;2022-09-09T18:54:21;99561.41;;;21.23;49.62
57376;BME280;44805;45.048;5.062;2022-09-09T18:56:50;99577.50;;;21.16;50.31
57376;BME280;44805;45.048;5.062;2022-09-09T18:59:23;99571.50;;;21.02;50.96
57376;BME280;44805;45.048;5.062;2022-09-09T19:01:56;99560.34;;;21.06;49.93
57376;BME280;44805;45.048;5.062;2022-09-09T19:04:27;99589.78;;;21.06;50.58
57376;BME280;44805;45.048;5.062;2022-09-09T19:06:56;99594.97;;;21.00;50.76
57376;BME280;44805;45.048;5.062;2022-09-09T19:09:32;99606.50;;;21.01;52.45
57376;BME280;44805;45.048;5.062;2022-09-09T19:12:04;99609.44;;;21.18;51.60
57376;BME280;44805;45.048;5.062;2022-09-09T19:14:47;99656.81;;;21.42;51.81
57376;BME280;44805;45.048;5.062;2022-09-09T19:17:15;99622.38;;;21.21;50.86
57376;BME280;44805;45.048;5.062;2022-09-09T19:19:49;99620.09;;;21.24;51.69
57376;BME280;44805;45.048;5.062;2022-09-09T19:25:41;99614.69;;;21.06;52.30
57376;BME280;44805;45.048;5.062;2022-09-09T19:28:17;99614.91;;;21.05;52.15
57376;BME280;44805;45.048;5.062;2022-09-09T19:31:08;99652.88;;;21.20;52.41
57376;BME280;44805;45.048;5.062;2022-09-09T19:33:49;99604.50;;;20.96;51.41
57376;BME280;44805;45.048;5.062;2022-09-09T19:36:23;99618.28;;;20.93;52.04
57376;BME280;44805;45.048;5.062;2022-09-09T19:38:54;99635.28;;;21.06;52.73
57376;BME280;44805;45.048;5.062;2022-09-09T19:41:28;99625.97;;;20.90;51.12
57376;BME280;44805;45.048;5.062;2022-09-09T19:46:40;99673.19;;;21.02;50.32
57376;BME280;44805;45.048;5.062;2022-09-09T19:49:19;99663.81;;;20.62;51.01
57376;BME280;44805;45.048;5.062;2022-09-09T19:51:57;99646.81;;;20.43;52.32
57376;BME280;44805;45.048;5.062;2022-09-09T19:55:03;99812.75;;;21.44;52.47
57376;BME280;44805;45.048;5.062;2022-09-09T19:57:43;99678.50;;;20.46;53.80
57376;BME280;44805;45.048;5.062;2022-09-09T20:03:38;99681.81;;;20.41;53.44
57376;BME280;44805;45.048;5.062;2022-09-09T20:06:05;99708.56;;;20.41;53.30
57376;BME280;44805;45.048;5.062;2022-09-09T20:08:35;99708.66;;;20.21;53.53
57376;BME280;44805;45.048;5.062;2022-09-09T20:11:06;99706.22;;;20.06;54.01
57376;BME280;44805;45.048;5.062;2022-09-09T20:13:35;99703.44;;;19.81;53.97
57376;BME280;44805;45.048;5.062;2022-09-09T20:19:25;99714.06;;;20.01;53.91
57376;BME280;44805;45.048;5.062;2022-09-09T20:21:51;99764.13;;;20.32;55.26
57376;BME280;44805;45.048;5.062;2022-09-09T20:24:21;99698.63;;;20.03;53.54
57376;BME280;44805;45.048;5.062;2022-09-09T20:26:59;99717.78;;;19.87;54.41
57376;BME280;44805;45.048;5.062;2022-09-09T20:29:35;99695.66;;;19.60;53.63
57376;BME280;44805;45.048;5.062;2022-09-09T20:32:09;99862.28;;;20.84;53.41
57376;BME280;44805;45.048;5.062;2022-09-09T20:34:39;99729.72;;;19.84;54.09
57376;BME280;44805;45.048;5.062;2022-09-09T20:37:25;99728.91;;;19.84;53.47
57376;BME280;44805;45.048;5.062;2022-09-09T20:39:55;99711.25;;;19.76;53.85
57376;BME280;44805;45.048;5.062;2022-09-09T20:42:36;99874.06;;;20.76;53.01
57376;BME280;44805;45.048;5.062;2022-09-09T20:49:07;99885.13;;;20.86;52.61
57376;BME280;44805;45.048;5.062;2022-09-09T20:51:40;99791.56;;;20.08;53.44
57376;BME280;44805;45.048;5.062;2022-09-09T20:54:23;99729.31;;;19.81;52.82
57376;BME280;44805;45.048;5.062;2022-09-09T20:56:59;99730.75;;;19.90;53.24
57376;BME280;44805;45.048;5.062;2022-09-09T20:59:34;99727.91;;;19.85;53.32
57376;BME280;44805;45.048;5.062;2022-09-09T21:05:22;99757.28;;;19.85;53.53
57376;BME280;44805;45.048;5.062;2022-09-09T21:07:51;99845.56;;;20.30;53.54
57376;BME280;44805;45.048;5.062;2022-09-09T21:10:21;99837.41;;;19.98;54.35
57376;BME280;44805;45.048;5.062;2022-09-09T21:12:47;99807.63;;;19.88;54.66
57376;BME280;44805;45.048;5.062;2022-09-09T21:18:35;99748.66;;;19.36;54.84
57376;BME280;44805;45.048;5.062;2022-09-09T21:21:02;99757.50;;;19.37;55.05
57376;BME280;44805;45.048;5.062;2022-09-09T21:23:29;99809.50;;;19.67;55.61
57376;BME280;44805;45.048;5.062;2022-09-09T21:25:57;99760.97;;;19.24;55.38
57376;BME280;44805;45.048;5.062;2022-09-09T21:28:41;99752.75;;;19.12;56.91
57376;BME280;44805;45.048;5.062;2022-09-09T21:31:06;99765.88;;;19.20;55.54
57376;BME280;44805;45.048;5.062;2022-09-09T21:33:38;99814.59;;;19.49;55.55
57376;BME280;44805;45.048;5.062;2022-09-09T21:36:05;99834.91;;;19.37;56.64
57376;BME280;44805;45.048;5.062;2022-09-09T21:38:31;99751.91;;;18.98;56.69
57376;BME280;44805;45.048;5.062;2022-09-09T21:41:02;99747.50;;;18.64;57.59
57376;BME280;44805;45.048;5.062;2022-09-09T21:43:28;99847.84;;;19.33;57.87
57376;BME280;44805;45.048;5.062;2022-09-09T21:45:54;99855.78;;;19.06;58.63
57376;BME280;44805;45.048;5.062;2022-09-09T21:48:21;99765.22;;;18.30;59.56
